Aeroporto :
LOGIN :

Iscrizione | Disclaimer

   EN    FR    IT 

 










Sommario :    VFR   VFR Marginale   IFR   IFR Intensivo   IFR Molto Intensivo
Visibilità : 
Base nubi : 
>= 8 km
>= 3000ft
5 / 8 km
1000 / 3000 ft
1500m / 5 km
500 / 1000 ft
800 / 1500m
200 / 500 ft
< 800m
< 200 ft
Simboli :   Temporali  Nebbia  Neve Forte  Precipitazioni Forti  Vento > 20 kt
SIGMETs :   Varie  Temporali  Ghiacco  Turbolenza  Onda orograficha  Ceneri Vulcaniche






- Altitudine del aeroporto : 939 ft


LKKB - Kbely Air Base

ULTIMO METAR :
  • 211700Z 07010KT 9999 FEW033 BKN037 BKN110 19/15 Q1006 NOSIG

METARs OBSOLETI :
  • 211600Z 07011KT 9999 SCT036 BKN090 BKN130 19/15 Q1007 NOSIG
  • 211500Z 08009KT 9999 FEW034 BKN070 OVC090 19/15 Q1008 NOSIG
  • 211400Z 08010KT 9999 FEW040 BKN070 OVC100 19/14 Q1008 NOSIG
  • 211300Z 08012KT 050V110 9999 FEW046 BKN080 OVC100 19/14 Q1008 NOSIG

TAF TAF LKKB
Valido dal 21 a 12 ore il 22 a 12 ore UTC


211100Z 2112/2212 10014KT 9999 SCT035
TEMPO 2112/2200 7000 SHRA BKN030TCU
PROB40
TEMPO 2112/2120 11014G24KT 4000 TSRA BKN020CB
TEMPO 2200/2208 18010KT RA BKN020
BECMG 2203/2205 22010KT BKN030



MetMap, La meteo Aeronautica in un colpo d'occhio ! - Copyright ORBIFLY Dicembre 2007 - Disclaimer

ORBIFLY MET'MAP TEAM :

Programmazione e sviluppo : Alexandra Zaïnal
Concezione : Baudouin d'Aumeries
Supporto tecnico e logistico : Manuel Goepfert
Aiuto : Marc-Olivier Méhu
Aiuto per la traduzione : Arnaldo La Scala




FONTI E CREDITI :

   NOAA